sensor_id;sensor_type;location;lat;lon;timestamp;pressure;altitude;pressure_sealevel;temperature;humidity
69911;BME280;63555;49.920;17.868;2024-02-26T00:02:59;97653.03;;;4.40;82.90
69911;BME280;63555;49.920;17.868;2024-02-26T00:07:59;97646.63;;;4.31;83.28
69911;BME280;63555;49.920;17.868;2024-02-26T00:13:00;97637.34;;;4.27;83.69
69911;BME280;63555;49.920;17.868;2024-02-26T00:18:01;97647.47;;;4.32;84.34
69911;BME280;63555;49.920;17.868;2024-02-26T00:23:01;97652.09;;;4.41;84.03
69911;BME280;63555;49.920;17.868;2024-02-26T00:28:02;97655.41;;;4.30;83.76
69911;BME280;63555;49.920;17.868;2024-02-26T00:33:02;97637.66;;;4.23;83.84
69911;BME280;63555;49.920;17.868;2024-02-26T00:38:03;97641.81;;;4.12;83.80
69911;BME280;63555;49.920;17.868;2024-02-26T00:43:04;97639.63;;;3.94;83.37
69911;BME280;63555;49.920;17.868;2024-02-26T00:48:05;97642.41;;;3.78;83.58
69911;BME280;63555;49.920;17.868;2024-02-26T00:53:05;97636.84;;;3.57;83.27
69911;BME280;63555;49.920;17.868;2024-02-26T00:58:06;97632.91;;;3.37;83.25
69911;BME280;63555;49.920;17.868;2024-02-26T01:03:06;97635.75;;;3.20;82.93
69911;BME280;63555;49.920;17.868;2024-02-26T01:08:06;97628.06;;;3.04;83.53
69911;BME280;63555;49.920;17.868;2024-02-26T01:13:07;97623.75;;;2.91;83.67
69911;BME280;63555;49.920;17.868;2024-02-26T01:18:08;97623.59;;;2.79;83.49
69911;BME280;63555;49.920;17.868;2024-02-26T01:23:08;97618.31;;;2.67;83.84
69911;BME280;63555;49.920;17.868;2024-02-26T01:28:08;97620.72;;;2.55;83.34
69911;BME280;63555;49.920;17.868;2024-02-26T01:33:09;97612.53;;;2.47;83.78
69911;BME280;63555;49.920;17.868;2024-02-26T01:38:09;97613.09;;;2.38;84.37
69911;BME280;63555;49.920;17.868;2024-02-26T01:43:09;97607.69;;;2.55;86.49
69911;BME280;63555;49.920;17.868;2024-02-26T01:48:10;97606.69;;;2.72;86.35
69911;BME280;63555;49.920;17.868;2024-02-26T01:53:11;97599.81;;;2.71;85.40
69911;BME280;63555;49.920;17.868;2024-02-26T01:58:14;97596.00;;;2.63;85.38
69911;BME280;63555;49.920;17.868;2024-02-26T02:03:16;97602.50;;;2.55;85.19
69911;BME280;63555;49.920;17.868;2024-02-26T02:08:16;97599.53;;;2.47;85.29
69911;BME280;63555;49.920;17.868;2024-02-26T02:13:17;97597.41;;;2.40;85.34
69911;BME280;63555;49.920;17.868;2024-02-26T02:18:17;97599.72;;;2.30;85.31
69911;BME280;63555;49.920;17.868;2024-02-26T02:23:19;97606.78;;;2.28;85.89
69911;BME280;63555;49.920;17.868;2024-02-26T02:28:19;97606.22;;;2.23;85.78
69911;BME280;63555;49.920;17.868;2024-02-26T02:33:20;97606.78;;;2.14;85.40
69911;BME280;63555;49.920;17.868;2024-02-26T02:38:22;97603.91;;;2.04;85.31
69911;BME280;63555;49.920;17.868;2024-02-26T02:43:24;97604.44;;;1.95;85.98
69911;BME280;63555;49.920;17.868;2024-02-26T02:48:24;97604.25;;;1.84;85.15
69911;BME280;63555;49.920;17.868;2024-02-26T02:53:24;97603.97;;;1.74;85.50
69911;BME280;63555;49.920;17.868;2024-02-26T02:58:25;97593.41;;;1.62;85.87
69911;BME280;63555;49.920;17.868;2024-02-26T03:03:25;97604.00;;;1.58;86.39
69911;BME280;63555;49.920;17.868;2024-02-26T03:08:26;97590.91;;;1.60;86.95
69911;BME280;63555;49.920;17.868;2024-02-26T03:13:26;97598.22;;;1.53;86.73
69911;BME280;63555;49.920;17.868;2024-02-26T03:18:27;97596.25;;;1.43;86.23
69911;BME280;63555;49.920;17.868;2024-02-26T03:23:27;97587.13;;;1.36;86.49
69911;BME280;63555;49.920;17.868;2024-02-26T03:28:27;97591.59;;;1.34;86.58
69911;BME280;63555;49.920;17.868;2024-02-26T03:33:28;97582.38;;;1.28;86.33
69911;BME280;63555;49.920;17.868;2024-02-26T03:38:29;97572.25;;;1.23;86.83
69911;BME280;63555;49.920;17.868;2024-02-26T03:43:29;97575.28;;;1.16;86.14
69911;BME280;63555;49.920;17.868;2024-02-26T03:48:29;97580.25;;;1.05;86.06
69911;BME280;63555;49.920;17.868;2024-02-26T03:53:30;97582.94;;;1.03;86.86
69911;BME280;63555;49.920;17.868;2024-02-26T03:58:30;97586.06;;;0.94;86.26
69911;BME280;63555;49.920;17.868;2024-02-26T04:03:31;97578.91;;;0.82;85.96
69911;BME280;63555;49.920;17.868;2024-02-26T04:08:31;97575.75;;;0.77;86.42
69911;BME280;63555;49.920;17.868;2024-02-26T04:13:31;97573.47;;;0.71;86.73
69911;BME280;63555;49.920;17.868;2024-02-26T04:18:32;97565.03;;;0.67;86.94
69911;BME280;63555;49.920;17.868;2024-02-26T04:23:33;97573.06;;;0.62;86.61
69911;BME280;63555;49.920;17.868;2024-02-26T04:28:33;97578.75;;;0.53;86.80
69911;BME280;63555;49.920;17.868;2024-02-26T04:33:34;97577.41;;;0.46;86.30
69911;BME280;63555;49.920;17.868;2024-02-26T04:38:35;97575.25;;;0.39;86.41
69911;BME280;63555;49.920;17.868;2024-02-26T04:43:36;97580.00;;;0.30;86.50
69911;BME280;63555;49.920;17.868;2024-02-26T04:48:41;97577.06;;;0.21;86.55
69911;BME280;63555;49.920;17.868;2024-02-26T04:53:46;97577.38;;;0.15;86.46
69911;BME280;63555;49.920;17.868;2024-02-26T04:58:47;97573.88;;;0.16;86.74
69911;BME280;63555;49.920;17.868;2024-02-26T05:03:47;97577.63;;;0.10;87.04
69911;BME280;63555;49.920;17.868;2024-02-26T05:08:48;97570.19;;;0.04;86.94
69911;BME280;63555;49.920;17.868;2024-02-26T05:13:48;97579.63;;;0.05;87.53
69911;BME280;63555;49.920;17.868;2024-02-26T05:18:48;97575.28;;;0.06;87.34
69911;BME280;63555;49.920;17.868;2024-02-26T05:23:49;97590.34;;;-0.03;87.16
69911;BME280;63555;49.920;17.868;2024-02-26T05:28:49;97585.25;;;-0.04;87.42
69911;BME280;63555;49.920;17.868;2024-02-26T05:33:50;97588.25;;;-0.12;87.08
69911;BME280;63555;49.920;17.868;2024-02-26T05:38:50;97590.31;;;-0.18;86.64
69911;BME280;63555;49.920;17.868;2024-02-26T05:43:51;97584.44;;;-0.22;87.21
69911;BME280;63555;49.920;17.868;2024-02-26T05:48:53;97583.63;;;-0.22;87.36
69911;BME280;63555;49.920;17.868;2024-02-26T05:53:53;97593.97;;;-0.22;87.85
69911;BME280;63555;49.920;17.868;2024-02-26T05:58:55;97598.09;;;-0.18;88.66
69911;BME280;63555;49.920;17.868;2024-02-26T06:03:55;97612.56;;;-0.14;88.78
69911;BME280;63555;49.920;17.868;2024-02-26T06:08:55;97620.63;;;-0.03;88.99
69911;BME280;63555;49.920;17.868;2024-02-26T06:13:56;97623.28;;;0.13;89.67
69911;BME280;63555;49.920;17.868;2024-02-26T06:18:56;97620.66;;;0.30;90.52
69911;BME280;63555;49.920;17.868;2024-02-26T06:23:57;97629.03;;;0.51;90.62
69911;BME280;63555;49.920;17.868;2024-02-26T06:28:59;97627.13;;;0.70;90.64
69911;BME280;63555;49.920;17.868;2024-02-26T06:33:59;97632.25;;;0.87;91.21
69911;BME280;63555;49.920;17.868;2024-02-26T06:38:59;97628.56;;;1.07;91.55
69911;BME280;63555;49.920;17.868;2024-02-26T06:44:00;97630.03;;;1.27;91.12
69911;BME280;63555;49.920;17.868;2024-02-26T06:49:00;97636.78;;;1.45;91.69
69911;BME280;63555;49.920;17.868;2024-02-26T06:54:00;97634.91;;;1.63;91.30
69911;BME280;63555;49.920;17.868;2024-02-26T06:59:01;97631.09;;;1.84;91.47
69911;BME280;63555;49.920;17.868;2024-02-26T07:04:03;97642.06;;;2.04;91.18
69911;BME280;63555;49.920;17.868;2024-02-26T07:09:04;97646.25;;;2.20;91.15
69911;BME280;63555;49.920;17.868;2024-02-26T07:14:04;97651.56;;;2.33;91.13
69911;BME280;63555;49.920;17.868;2024-02-26T07:19:04;97651.00;;;2.42;90.98
69911;BME280;63555;49.920;17.868;2024-02-26T07:24:05;97661.22;;;2.45;91.38
69911;BME280;63555;49.920;17.868;2024-02-26T07:29:05;97657.59;;;2.48;91.61
69911;BME280;63555;49.920;17.868;2024-02-26T07:34:06;97660.13;;;2.64;92.11
69911;BME280;63555;49.920;17.868;2024-02-26T07:39:06;97655.84;;;2.77;91.90
69911;BME280;63555;49.920;17.868;2024-02-26T07:44:06;97647.56;;;2.84;91.54
69911;BME280;63555;49.920;17.868;2024-02-26T07:49:07;97645.13;;;2.96;91.49
69911;BME280;63555;49.920;17.868;2024-02-26T07:54:08;97638.94;;;3.11;92.03
69911;BME280;63555;49.920;17.868;2024-02-26T07:59:09;97626.59;;;3.27;91.79
69911;BME280;63555;49.920;17.868;2024-02-26T08:04:09;97627.38;;;3.42;92.00
69911;BME280;63555;49.920;17.868;2024-02-26T08:09:10;97626.41;;;3.57;91.72
69911;BME280;63555;49.920;17.868;2024-02-26T08:14:10;97629.69;;;3.73;92.02
69911;BME280;63555;49.920;17.868;2024-02-26T08:19:11;97618.03;;;3.92;91.84
69911;BME280;63555;49.920;17.868;2024-02-26T08:24:14;97627.09;;;4.24;92.87
69911;BME280;63555;49.920;17.868;2024-02-26T08:29:14;97627.00;;;5.00;93.51
69911;BME280;63555;49.920;17.868;2024-02-26T08:34:18;97621.47;;;5.88;92.62
69911;BME280;63555;49.920;17.868;2024-02-26T08:39:18;97628.78;;;6.64;91.01
69911;BME280;63555;49.920;17.868;2024-02-26T08:44:18;97620.28;;;7.16;90.32
69911;BME280;63555;49.920;17.868;2024-02-26T08:49:19;97616.19;;;7.66;89.87
69911;BME280;63555;49.920;17.868;2024-02-26T08:54:19;97616.47;;;8.47;88.80
69911;BME280;63555;49.920;17.868;2024-02-26T08:59:19;97615.50;;;9.09;87.61
69911;BME280;63555;49.920;17.868;2024-02-26T09:04:22;97615.03;;;9.63;85.98
69911;BME280;63555;49.920;17.868;2024-02-26T09:09:23;97619.81;;;10.35;86.10
69911;BME280;63555;49.920;17.868;2024-02-26T09:14:25;97611.69;;;11.30;83.33
69911;BME280;63555;49.920;17.868;2024-02-26T09:19:26;97605.97;;;11.35;82.91
69911;BME280;63555;49.920;17.868;2024-02-26T09:24:27;97602.34;;;11.71;83.20
69911;BME280;63555;49.920;17.868;2024-02-26T09:29:28;97607.19;;;12.63;82.48
69911;BME280;63555;49.920;17.868;2024-02-26T09:34:29;97606.28;;;13.81;76.39
69911;BME280;63555;49.920;17.868;2024-02-26T09:39:29;97613.13;;;14.16;71.79
69911;BME280;63555;49.920;17.868;2024-02-26T09:44:30;97614.94;;;14.24;69.45
69911;BME280;63555;49.920;17.868;2024-02-26T09:49:35;97605.84;;;14.10;67.20
69911;BME280;63555;49.920;17.868;2024-02-26T09:54:35;97612.78;;;14.11;64.17
69911;BME280;63555;49.920;17.868;2024-02-26T09:59:39;97609.47;;;14.17;63.68
69911;BME280;63555;49.920;17.868;2024-02-26T10:04:42;97602.34;;;15.06;61.14
69911;BME280;63555;49.920;17.868;2024-02-26T10:09:43;97601.81;;;15.80;59.67
69911;BME280;63555;49.920;17.868;2024-02-26T10:14:44;97596.19;;;17.03;54.58
69911;BME280;63555;49.920;17.868;2024-02-26T10:19:44;97602.16;;;17.70;52.84
69911;BME280;63555;49.920;17.868;2024-02-26T10:24:47;97598.28;;;17.58;51.86
69911;BME280;63555;49.920;17.868;2024-02-26T10:29:47;97591.38;;;17.28;52.21
69911;BME280;63555;49.920;17.868;2024-02-26T10:34:47;97596.00;;;17.04;52.17
69911;BME280;63555;49.920;17.868;2024-02-26T10:39:48;97601.75;;;17.37;51.15
69911;BME280;63555;49.920;17.868;2024-02-26T10:44:48;97601.50;;;17.03;50.45
69911;BME280;63555;49.920;17.868;2024-02-26T10:49:50;97594.34;;;16.74;50.68
69911;BME280;63555;49.920;17.868;2024-02-26T10:54:53;97584.88;;;17.01;50.48
69911;BME280;63555;49.920;17.868;2024-02-26T10:59:54;97583.88;;;17.02;50.17
69911;BME280;63555;49.920;17.868;2024-02-26T11:04:56;97584.47;;;18.12;48.56
69911;BME280;63555;49.920;17.868;2024-02-26T11:10:01;97592.06;;;18.92;46.19
69911;BME280;63555;49.920;17.868;2024-02-26T11:15:03;97590.09;;;19.49;45.63
69911;BME280;63555;49.920;17.868;2024-02-26T11:20:04;97580.31;;;19.89;44.94
69911;BME280;63555;49.920;17.868;2024-02-26T11:25:06;97580.09;;;19.77;44.43
69911;BME280;63555;49.920;17.868;2024-02-26T11:30:11;97576.38;;;19.65;44.39
69911;BME280;63555;49.920;17.868;2024-02-26T11:35:13;97576.38;;;19.71;43.92
69911;BME280;63555;49.920;17.868;2024-02-26T11:40:17;97568.56;;;19.77;43.87
69911;BME280;63555;49.920;17.868;2024-02-26T11:45:56;97571.84;;;19.72;43.63
69911;BME280;63555;49.920;17.868;2024-02-26T11:50:59;97571.84;;;19.72;43.60
69911;BME280;63555;49.920;17.868;2024-02-26T12:24:35;97537.41;;;18.04;44.73
69911;BME280;63555;49.920;17.868;2024-02-26T12:29:35;97540.94;;;17.83;44.89
69911;BME280;63555;49.920;17.868;2024-02-26T13:46:47;97535.22;;;16.11;46.12
69911;BME280;63555;49.920;17.868;2024-02-26T13:51:47;97539.31;;;15.62;46.79
69911;BME280;63555;49.920;17.868;2024-02-26T14:02:45;97529.41;;;15.47;47.23
69911;BME280;63555;49.920;17.868;2024-02-26T14:07:45;97524.53;;;15.28;47.67
69911;BME280;63555;49.920;17.868;2024-02-26T14:12:45;97522.34;;;15.09;48.20
69911;BME280;63555;49.920;17.868;2024-02-26T14:17:46;97524.13;;;14.85;48.46
69911;BME280;63555;49.920;17.868;2024-02-26T14:22:53;97535.78;;;14.68;48.39
69911;BME280;63555;49.920;17.868;2024-02-26T14:27:53;97543.28;;;14.56;48.90
69911;BME280;63555;49.920;17.868;2024-02-26T14:32:54;97549.44;;;14.41;49.01
69911;BME280;63555;49.920;17.868;2024-02-26T14:37:54;97541.84;;;14.29;49.32
69911;BME280;63555;49.920;17.868;2024-02-26T14:43:00;97553.31;;;14.14;49.46
69911;BME280;63555;49.920;17.868;2024-02-26T14:48:01;97554.63;;;14.01;49.77
69911;BME280;63555;49.920;17.868;2024-02-26T14:53:01;97553.13;;;13.83;50.23
69911;BME280;63555;49.920;17.868;2024-02-26T14:58:03;97543.53;;;13.65;50.84
69911;BME280;63555;49.920;17.868;2024-02-26T15:03:04;97560.72;;;13.45;50.83
69911;BME280;63555;49.920;17.868;2024-02-26T15:08:04;97563.84;;;13.24;51.59
69911;BME280;63555;49.920;17.868;2024-02-26T15:13:05;97566.25;;;13.10;51.89
69911;BME280;63555;49.920;17.868;2024-02-26T15:18:08;97571.66;;;13.00;52.43
69911;BME280;63555;49.920;17.868;2024-02-26T15:23:12;97581.84;;;12.87;52.46
69911;BME280;63555;49.920;17.868;2024-02-26T15:28:12;97586.25;;;12.70;53.08
69911;BME280;63555;49.920;17.868;2024-02-26T15:33:15;97586.63;;;12.49;53.71
69911;BME280;63555;49.920;17.868;2024-02-26T15:38:15;97591.66;;;12.34;54.23
69911;BME280;63555;49.920;17.868;2024-02-26T15:43:16;97594.03;;;12.20;54.14
69911;BME280;63555;49.920;17.868;2024-02-26T15:48:16;97604.47;;;12.03;54.44
69911;BME280;63555;49.920;17.868;2024-02-26T15:53:17;97606.31;;;11.85;55.08
69911;BME280;63555;49.920;17.868;2024-02-26T15:58:17;97611.09;;;11.72;55.65
69911;BME280;63555;49.920;17.868;2024-02-26T16:03:18;97622.34;;;11.56;55.81
69911;BME280;63555;49.920;17.868;2024-02-26T16:08:21;97625.94;;;11.37;56.42
69911;BME280;63555;49.920;17.868;2024-02-26T16:13:22;97635.31;;;11.22;56.58
69911;BME280;63555;49.920;17.868;2024-02-26T16:18:22;97638.91;;;11.03;57.61
69911;BME280;63555;49.920;17.868;2024-02-26T16:23:23;97639.13;;;10.82;57.82
69911;BME280;63555;49.920;17.868;2024-02-26T16:28:23;97647.09;;;10.63;58.60
69911;BME280;63555;49.920;17.868;2024-02-26T16:33:26;97650.47;;;10.56;59.55
69911;BME280;63555;49.920;17.868;2024-02-26T16:38:26;97672.41;;;10.46;59.79
69911;BME280;63555;49.920;17.868;2024-02-26T16:43:26;97670.88;;;10.34;60.23
69911;BME280;63555;49.920;17.868;2024-02-26T16:48:32;97675.72;;;10.29;60.73
69911;BME280;63555;49.920;17.868;2024-02-26T16:53:34;97684.75;;;10.27;60.42
69911;BME280;63555;49.920;17.868;2024-02-26T16:58:34;97685.41;;;10.19;61.30
69911;BME280;63555;49.920;17.868;2024-02-26T17:03:37;97697.34;;;10.13;61.40
69911;BME280;63555;49.920;17.868;2024-02-26T17:08:38;97709.41;;;10.06;62.05
69911;BME280;63555;49.920;17.868;2024-02-26T17:13:38;97704.41;;;9.84;62.26
69911;BME280;63555;49.920;17.868;2024-02-26T17:18:38;97710.91;;;9.70;62.80
69911;BME280;63555;49.920;17.868;2024-02-26T17:23:39;97709.78;;;9.63;63.27
69911;BME280;63555;49.920;17.868;2024-02-26T17:28:39;97714.91;;;9.55;63.75
69911;BME280;63555;49.920;17.868;2024-02-26T17:33:40;97719.69;;;9.50;64.12
69911;BME280;63555;49.920;17.868;2024-02-26T17:38:40;97719.00;;;9.48;63.78
69911;BME280;63555;49.920;17.868;2024-02-26T17:43:41;97718.00;;;9.39;64.37
69911;BME280;63555;49.920;17.868;2024-02-26T17:48:41;97718.25;;;9.26;65.06
69911;BME280;63555;49.920;17.868;2024-02-26T17:53:42;97727.22;;;9.14;64.99
69911;BME280;63555;49.920;17.868;2024-02-26T17:58:43;97740.19;;;9.06;65.40
69911;BME280;63555;49.920;17.868;2024-02-26T18:03:43;97740.06;;;9.08;65.78
69911;BME280;63555;49.920;17.868;2024-02-26T18:08:43;97743.94;;;9.13;66.10
69911;BME280;63555;49.920;17.868;2024-02-26T18:13:44;97757.41;;;9.20;66.17
69911;BME280;63555;49.920;17.868;2024-02-26T18:18:45;97757.41;;;9.20;66.40
69911;BME280;63555;49.920;17.868;2024-02-26T18:23:47;97764.03;;;9.14;66.55
69911;BME280;63555;49.920;17.868;2024-02-26T18:28:48;97761.22;;;9.06;66.84
69911;BME280;63555;49.920;17.868;2024-02-26T18:33:49;97773.63;;;8.94;67.24
69911;BME280;63555;49.920;17.868;2024-02-26T18:38:49;97781.56;;;8.83;67.66
69911;BME280;63555;49.920;17.868;2024-02-26T18:43:51;97774.38;;;8.65;68.01
69911;BME280;63555;49.920;17.868;2024-02-26T18:48:52;97793.09;;;8.50;68.39
69911;BME280;63555;49.920;17.868;2024-02-26T18:53:53;97796.59;;;8.40;68.90
69911;BME280;63555;49.920;17.868;2024-02-26T18:58:53;97794.81;;;8.29;69.21
69911;BME280;63555;49.920;17.868;2024-02-26T19:03:54;97808.13;;;8.16;69.43
69911;BME280;63555;49.920;17.868;2024-02-26T19:08:54;97814.22;;;8.06;69.56
69911;BME280;63555;49.920;17.868;2024-02-26T19:13:55;97823.81;;;7.95;70.00
69911;BME280;63555;49.920;17.868;2024-02-26T19:18:57;97819.53;;;7.83;70.32
69911;BME280;63555;49.920;17.868;2024-02-26T19:23:57;97825.72;;;7.71;70.99
69911;BME280;63555;49.920;17.868;2024-02-26T19:28:58;97817.63;;;7.63;70.75
69911;BME280;63555;49.920;17.868;2024-02-26T19:33:59;97827.16;;;7.53;71.28
69911;BME280;63555;49.920;17.868;2024-02-26T19:39:01;97834.81;;;7.45;71.40
69911;BME280;63555;49.920;17.868;2024-02-26T19:44:01;97836.47;;;7.34;71.56
69911;BME280;63555;49.920;17.868;2024-02-26T19:49:01;97832.66;;;7.27;72.20
69911;BME280;63555;49.920;17.868;2024-02-26T19:54:02;97835.63;;;7.23;72.78
69911;BME280;63555;49.920;17.868;2024-02-26T19:59:04;97840.03;;;7.22;72.89
69911;BME280;63555;49.920;17.868;2024-02-26T20:04:04;97844.34;;;7.23;73.21
69911;BME280;63555;49.920;17.868;2024-02-26T20:09:10;97846.47;;;7.18;73.02
69911;BME280;63555;49.920;17.868;2024-02-26T20:14:11;97846.22;;;7.10;73.03
69911;BME280;63555;49.920;17.868;2024-02-26T20:19:11;97853.84;;;7.02;73.63
69911;BME280;63555;49.920;17.868;2024-02-26T20:24:13;97849.06;;;6.96;74.01
69911;BME280;63555;49.920;17.868;2024-02-26T20:29:13;97862.47;;;6.91;74.58
69911;BME280;63555;49.920;17.868;2024-02-26T20:34:14;97862.00;;;6.86;74.37
69911;BME280;63555;49.920;17.868;2024-02-26T20:39:14;97866.00;;;6.79;74.85
69911;BME280;63555;49.920;17.868;2024-02-26T20:44:16;97865.28;;;6.77;75.02
69911;BME280;63555;49.920;17.868;2024-02-26T20:49:16;97866.13;;;6.78;74.67
69911;BME280;63555;49.920;17.868;2024-02-26T20:54:17;97876.72;;;6.76;75.16
69911;BME280;63555;49.920;17.868;2024-02-26T20:59:18;97885.88;;;6.70;75.41
69911;BME280;63555;49.920;17.868;2024-02-26T21:04:18;97883.94;;;6.61;75.35
69911;BME280;63555;49.920;17.868;2024-02-26T21:09:18;97886.41;;;6.52;75.66
69911;BME280;63555;49.920;17.868;2024-02-26T21:14:19;97896.69;;;6.42;75.63
69911;BME280;63555;49.920;17.868;2024-02-26T21:19:19;97913.69;;;6.36;76.48
69911;BME280;63555;49.920;17.868;2024-02-26T21:24:20;97912.34;;;6.31;75.89
69911;BME280;63555;49.920;17.868;2024-02-26T21:29:20;97922.94;;;6.29;76.46
69911;BME280;63555;49.920;17.868;2024-02-26T21:34:20;97921.88;;;6.32;77.17
69911;BME280;63555;49.920;17.868;2024-02-26T21:39:21;97913.91;;;6.33;77.34
69911;BME280;63555;49.920;17.868;2024-02-26T21:44:21;97915.59;;;6.34;77.36
69911;BME280;63555;49.920;17.868;2024-02-26T21:49:21;97922.59;;;6.34;77.50
69911;BME280;63555;49.920;17.868;2024-02-26T21:54:23;97928.78;;;6.33;77.45
69911;BME280;63555;49.920;17.868;2024-02-26T21:59:26;97930.47;;;6.34;77.51
69911;BME280;63555;49.920;17.868;2024-02-26T22:04:26;97933.69;;;6.37;78.45
69911;BME280;63555;49.920;17.868;2024-02-26T22:09:26;97932.63;;;6.40;78.13
69911;BME280;63555;49.920;17.868;2024-02-26T22:14:27;97941.56;;;6.37;78.49
69911;BME280;63555;49.920;17.868;2024-02-26T22:19:27;97933.09;;;6.34;78.75
69911;BME280;63555;49.920;17.868;2024-02-26T22:24:28;97928.78;;;6.33;78.57
69911;BME280;63555;49.920;17.868;2024-02-26T22:29:28;97933.69;;;6.37;78.95
69911;BME280;63555;49.920;17.868;2024-02-26T22:34:28;97944.28;;;6.36;79.10
69911;BME280;63555;49.920;17.868;2024-02-26T22:39:29;97937.19;;;6.25;79.01
69911;BME280;63555;49.920;17.868;2024-02-26T22:44:30;97938.06;;;6.13;78.91
69911;BME280;63555;49.920;17.868;2024-02-26T22:49:30;97937.84;;;6.03;78.49
69911;BME280;63555;49.920;17.868;2024-02-26T22:54:32;97949.47;;;5.87;79.45
69911;BME280;63555;49.920;17.868;2024-02-26T22:59:32;97948.66;;;5.73;78.83
69911;BME280;63555;49.920;17.868;2024-02-26T23:04:33;97947.59;;;5.63;79.47
69911;BME280;63555;49.920;17.868;2024-02-26T23:09:33;97954.41;;;5.53;79.36
69911;BME280;63555;49.920;17.868;2024-02-26T23:14:35;97958.38;;;5.46;79.19
69911;BME280;63555;49.920;17.868;2024-02-26T23:19:35;97954.50;;;5.39;79.58
69911;BME280;63555;49.920;17.868;2024-02-26T23:24:36;97956.81;;;5.31;79.96
69911;BME280;63555;49.920;17.868;2024-02-26T23:29:36;97960.75;;;5.24;79.83
69911;BME280;63555;49.920;17.868;2024-02-26T23:34:37;97962.19;;;5.15;80.44
69911;BME280;63555;49.920;17.868;2024-02-26T23:39:37;97956.72;;;5.05;80.84
69911;BME280;63555;49.920;17.868;2024-02-26T23:44:39;97967.25;;;4.91;79.92
69911;BME280;63555;49.920;17.868;2024-02-26T23:49:40;97968.06;;;4.79;80.42
69911;BME280;63555;49.920;17.868;2024-02-26T23:54:40;97960.06;;;4.68;80.46
69911;BME280;63555;49.920;17.868;2024-02-26T23:59:40;97970.47;;;4.55;80.37
